UAL721 KEWR-KTPA
Flight info
| Callsign | UAL721 |
|---|---|
| Flight time | N/A |
| Altitude | 40000 |
| Route | ELVAE NECCK WHITE Q409 PUPYY BAAMF DADES2 |
| Aircraft | B78X/H-SDE1E2E3FGHIJ2J3J4J5M1RWXY/LB1D1 |
Departure
| Time | 2026-05-01 13:24 |
|---|---|
| Airport | Newark Liberty International Airport (KEWR) |
Arrival
| Time | N/A |
|---|---|
| Airport | Tampa International Airport (KTPA) |
| Time | Latitude | Longitude | Altitude | Speed | Heading |
|---|---|---|---|---|---|
| 2026-05-01 13:07 | 40.69398 | -74.17362 | 28 ft | 0 kts | 13° |
| 2026-05-01 13:11 | 40.69389 | -74.17365 | 28 ft | 4 kts | 12° |
| 2026-05-01 13:11 | 40.69363 | -74.17373 | 27 ft | 4 kts | 15° |
| 2026-05-01 13:11 | 40.69342 | -74.17381 | 25 ft | 2 kts | 45° |
| 2026-05-01 13:12 | 40.69335 | -74.17393 | 26 ft | 2 kts | 95° |
| 2026-05-01 13:12 | 40.69336 | -74.17407 | 26 ft | 2 kts | 100° |
| 2026-05-01 13:12 | 40.69336 | -74.17409 | 27 ft | 0 kts | 100° |
| 2026-05-01 13:17 | 40.69336 | -74.17408 | 27 ft | 1 kts | 100° |
| 2026-05-01 13:17 | 40.69331 | -74.17382 | 26 ft | 5 kts | 106° |
| 2026-05-01 13:18 | 40.69279 | -74.17247 | 28 ft | 9 kts | 121° |
| 2026-05-01 13:18 | 40.69256 | -74.17170 | 28 ft | 9 kts | 89° |
| 2026-05-01 13:18 | 40.69292 | -74.17117 | 28 ft | 8 kts | 35° |
| 2026-05-01 13:18 | 40.69344 | -74.17078 | 28 ft | 9 kts | 29° |
| 2026-05-01 13:19 | 40.69410 | -74.17035 | 28 ft | 12 kts | 26° |
| 2026-05-01 13:19 | 40.69489 | -74.16985 | 28 ft | 14 kts | 26° |
| 2026-05-01 13:19 | 40.69684 | -74.16861 | 27 ft | 17 kts | 25° |
| 2026-05-01 13:20 | 40.69784 | -74.16798 | 28 ft | 14 kts | 25° |
| 2026-05-01 13:20 | 40.69882 | -74.16766 | 28 ft | 15 kts | 7° |
| 2026-05-01 13:20 | 40.69969 | -74.16755 | 28 ft | 10 kts | 5° |
| 2026-05-01 13:21 | 40.70072 | -74.16678 | 28 ft | 9 kts | 79° |
| 2026-05-01 13:21 | 40.70072 | -74.16589 | 27 ft | 11 kts | 92° |
| 2026-05-01 13:21 | 40.70067 | -74.16503 | 27 ft | 0 kts | 94° |
| 2026-05-01 13:22 | 40.70065 | -74.16477 | 27 ft | 5 kts | 96° |
| 2026-05-01 13:22 | 40.70045 | -74.16419 | 31 ft | 9 kts | 130° |
| 2026-05-01 13:23 | 40.69985 | -74.16402 | 30 ft | 10 kts | 189° |
| 2026-05-01 13:23 | 40.69914 | -74.16437 | 29 ft | 15 kts | 204° |
| 2026-05-01 13:23 | 40.69685 | -74.16580 | 28 ft | 74 kts | 206° |
| 2026-05-01 13:23 | 40.68958 | -74.17040 | 29 ft | 157 kts | 205° |
| 2026-05-01 13:24 | 40.67824 | -74.17748 | 401 ft | 199 kts | 207° |
| 2026-05-01 13:24 | 40.66357 | -74.18482 | 648 ft | 251 kts | 195° |
| 2026-05-01 13:24 | 40.64558 | -74.18823 | 1712 ft | 260 kts | 187° |
| 2026-05-01 13:25 | 40.61686 | -74.21036 | 4606 ft | 248 kts | 243° |
| 2026-05-01 13:25 | 40.61013 | -74.23161 | 5628 ft | 257 kts | 251° |
| 2026-05-01 13:25 | 40.60299 | -74.25306 | 6872 ft | 262 kts | 245° |
| 2026-05-01 13:25 | 40.59037 | -74.27105 | 8021 ft | 277 kts | 220° |
| 2026-05-01 13:26 | 40.57199 | -74.28081 | 9124 ft | 297 kts | 193° |
| 2026-05-01 13:26 | 40.55796 | -74.28065 | 9839 ft | 311 kts | 173° |
| 2026-05-01 13:26 | 40.53677 | -74.27203 | 10721 ft | 327 kts | 159° |
| 2026-05-01 13:26 | 40.51513 | -74.26017 | 11459 ft | 344 kts | 163° |
| 2026-05-01 13:27 | 40.49226 | -74.24932 | 12165 ft | 362 kts | 165° |
| 2026-05-01 13:27 | 40.46799 | -74.23777 | 12957 ft | 376 kts | 165° |
| 2026-05-01 13:27 | 40.41834 | -74.21270 | 14987 ft | 386 kts | 165° |
| 2026-05-01 13:28 | 40.36744 | -74.18766 | 16884 ft | 397 kts | 166° |
| 2026-05-01 13:28 | 40.34134 | -74.17491 | 17813 ft | 400 kts | 169° |
| 2026-05-01 13:29 | 40.28744 | -74.16829 | 19485 ft | 384 kts | 195° |
| 2026-05-01 13:29 | 40.23569 | -74.18268 | 21122 ft | 384 kts | 200° |
| 2026-05-01 13:30 | 40.12987 | -74.21449 | 24065 ft | 396 kts | 200° |
| 2026-05-01 13:31 | 40.07570 | -74.23072 | 25193 ft | 404 kts | 201° |
| 2026-05-01 13:31 | 39.99588 | -74.26400 | 26839 ft | 399 kts | 217° |
| 2026-05-01 13:32 | 39.95035 | -74.30511 | 27889 ft | 400 kts | 223° |
| 2026-05-01 13:33 | 39.88227 | -74.36997 | 29468 ft | 409 kts | 224° |
| 2026-05-01 13:33 | 39.83610 | -74.41379 | 30414 ft | 415 kts | 224° |
| 2026-05-01 13:34 | 39.79336 | -74.46358 | 31235 ft | 411 kts | 233° |
| 2026-05-01 13:34 | 39.75286 | -74.51717 | 32034 ft | 417 kts | 233° |
| 2026-05-01 13:35 | 39.71223 | -74.57109 | 32811 ft | 421 kts | 233° |
| 2026-05-01 13:35 | 39.69155 | -74.59845 | 33189 ft | 424 kts | 234° |
| 2026-05-01 13:35 | 39.65023 | -74.65301 | 34065 ft | 425 kts | 234° |
| 2026-05-01 13:36 | 39.62949 | -74.68037 | 34539 ft | 423 kts | 234° |
| 2026-05-01 13:36 | 39.60886 | -74.70758 | 34969 ft | 422 kts | 233° |
| 2026-05-01 13:36 | 39.56780 | -74.76166 | 35757 ft | 423 kts | 233° |
| 2026-05-01 13:37 | 39.54700 | -74.78901 | 36125 ft | 424 kts | 233° |
| 2026-05-01 13:37 | 39.52615 | -74.81640 | 36488 ft | 425 kts | 232° |
| 2026-05-01 13:37 | 39.50560 | -74.84338 | 36843 ft | 426 kts | 232° |
| 2026-05-01 13:37 | 39.48458 | -74.87094 | 37199 ft | 427 kts | 232° |
| 2026-05-01 13:38 | 39.44279 | -74.92568 | 37899 ft | 430 kts | 231° |
| 2026-05-01 13:38 | 39.42164 | -74.95333 | 38254 ft | 431 kts | 231° |
| 2026-05-01 13:38 | 39.40047 | -74.98098 | 38611 ft | 432 kts | 231° |
| 2026-05-01 13:39 | 39.37950 | -75.00837 | 38908 ft | 433 kts | 231° |
| 2026-05-01 13:39 | 39.35822 | -75.03612 | 39201 ft | 433 kts | 231° |
| 2026-05-01 13:39 | 39.33696 | -75.06382 | 39484 ft | 434 kts | 231° |
| 2026-05-01 13:39 | 39.31565 | -75.09156 | 39768 ft | 434 kts | 231° |
| 2026-05-01 13:40 | 39.29399 | -75.11894 | 40014 ft | 438 kts | 227° |
| 2026-05-01 13:40 | 39.24867 | -75.17191 | 40032 ft | 442 kts | 228° |
| 2026-05-01 13:41 | 39.20309 | -75.22524 | 40030 ft | 441 kts | 228° |
| 2026-05-01 13:41 | 39.15752 | -75.27844 | 40035 ft | 440 kts | 228° |
| 2026-05-01 13:42 | 39.11224 | -75.33122 | 40029 ft | 440 kts | 228° |
| 2026-05-01 13:42 | 39.06660 | -75.38405 | 40027 ft | 441 kts | 225° |
| 2026-05-01 13:43 | 39.01402 | -75.42639 | 40048 ft | 458 kts | 211° |
| 2026-05-01 13:43 | 38.95204 | -75.44987 | 40050 ft | 475 kts | 196° |
| 2026-05-01 13:44 | 38.88610 | -75.45947 | 40047 ft | 478 kts | 195° |
| 2026-05-01 13:44 | 38.81988 | -75.46849 | 40041 ft | 477 kts | 195° |
| 2026-05-01 13:45 | 38.75365 | -75.47767 | 40040 ft | 478 kts | 196° |
| 2026-05-01 13:45 | 38.68740 | -75.48673 | 40041 ft | 478 kts | 196° |
| 2026-05-01 13:46 | 38.62142 | -75.49565 | 40043 ft | 479 kts | 196° |
| 2026-05-01 13:46 | 38.55770 | -75.50432 | 40044 ft | 479 kts | 196° |
| 2026-05-01 13:47 | 38.49150 | -75.51326 | 40062 ft | 478 kts | 196° |
| 2026-05-01 13:47 | 38.42519 | -75.52223 | 40065 ft | 478 kts | 196° |
| 2026-05-01 13:48 | 38.36049 | -75.53506 | 40078 ft | 464 kts | 206° |
| 2026-05-01 13:48 | 38.30234 | -75.56676 | 40094 ft | 445 kts | 220° |
| 2026-05-01 13:49 | 38.25144 | -75.61021 | 40078 ft | 441 kts | 223° |
| 2026-05-01 13:49 | 38.20070 | -75.65435 | 40075 ft | 440 kts | 223° |
| 2026-05-01 13:50 | 38.15028 | -75.69822 | 40067 ft | 440 kts | 223° |
| 2026-05-01 13:50 | 38.09964 | -75.74213 | 40057 ft | 439 kts | 223° |
| 2026-05-01 13:51 | 38.04937 | -75.78569 | 40060 ft | 438 kts | 223° |
| 2026-05-01 13:51 | 37.99896 | -75.82927 | 40059 ft | 438 kts | 223° |
| 2026-05-01 13:52 | 37.94890 | -75.87250 | 40065 ft | 438 kts | 223° |
| 2026-05-01 13:52 | 37.89844 | -75.91598 | 40062 ft | 438 kts | 223° |
| 2026-05-01 13:53 | 37.84797 | -75.95941 | 40065 ft | 437 kts | 223° |
| 2026-05-01 13:53 | 37.77250 | -76.02419 | 40064 ft | 437 kts | 224° |
| 2026-05-01 13:54 | 37.72238 | -76.06714 | 40063 ft | 436 kts | 224° |
| 2026-05-01 13:54 | 37.67224 | -76.11002 | 40065 ft | 436 kts | 224° |
| 2026-05-01 13:55 | 37.62181 | -76.15309 | 40063 ft | 436 kts | 224° |
| 2026-05-01 13:55 | 37.57173 | -76.19586 | 40063 ft | 436 kts | 224° |
| 2026-05-01 13:56 | 37.52174 | -76.23863 | 40065 ft | 435 kts | 224° |
| 2026-05-01 13:56 | 37.47142 | -76.28153 | 40070 ft | 435 kts | 224° |
| 2026-05-01 13:57 | 37.42976 | -76.31702 | 40066 ft | 436 kts | 224° |
| 2026-05-01 13:57 | 37.37121 | -76.36680 | 40074 ft | 436 kts | 224° |
| 2026-05-01 13:58 | 37.32092 | -76.40949 | 40077 ft | 436 kts | 224° |
| 2026-05-01 13:58 | 37.27059 | -76.45215 | 40072 ft | 436 kts | 224° |
| 2026-05-01 13:59 | 37.22045 | -76.49457 | 40074 ft | 436 kts | 224° |
| 2026-05-01 13:59 | 37.16998 | -76.53720 | 40074 ft | 437 kts | 224° |
| 2026-05-01 14:00 | 37.11964 | -76.57965 | 40071 ft | 437 kts | 224° |
| 2026-05-01 14:00 | 37.06906 | -76.62223 | 40074 ft | 437 kts | 224° |
| 2026-05-01 14:01 | 37.01890 | -76.66440 | 40068 ft | 437 kts | 224° |
| 2026-05-01 14:01 | 36.96826 | -76.70688 | 40071 ft | 437 kts | 224° |
| 2026-05-01 14:02 | 36.91792 | -76.74906 | 40074 ft | 437 kts | 224° |
| 2026-05-01 14:02 | 36.86715 | -76.79153 | 40079 ft | 438 kts | 224° |
| 2026-05-01 14:03 | 36.81674 | -76.83362 | 40086 ft | 437 kts | 224° |
| 2026-05-01 14:03 | 36.76600 | -76.87593 | 40099 ft | 437 kts | 224° |
| 2026-05-01 14:04 | 36.71565 | -76.91784 | 40092 ft | 437 kts | 224° |
| 2026-05-01 14:04 | 36.67343 | -76.95293 | 40079 ft | 437 kts | 224° |
| 2026-05-01 14:05 | 36.61459 | -77.00176 | 40080 ft | 436 kts | 224° |
| 2026-05-01 14:05 | 36.56398 | -77.04368 | 40077 ft | 435 kts | 224° |
| 2026-05-01 14:06 | 36.51383 | -77.08516 | 40073 ft | 435 kts | 224° |
| 2026-05-01 14:06 | 36.46335 | -77.12684 | 40071 ft | 434 kts | 224° |
| 2026-05-01 14:07 | 36.41306 | -77.16831 | 40074 ft | 433 kts | 224° |
| 2026-05-01 14:08 | 36.33781 | -77.23023 | 40073 ft | 433 kts | 224° |
| 2026-05-01 14:08 | 36.28970 | -77.27363 | 40084 ft | 428 kts | 228° |
| 2026-05-01 14:09 | 36.24252 | -77.31937 | 40082 ft | 428 kts | 228° |
| 2026-05-01 14:09 | 36.19609 | -77.36466 | 40077 ft | 427 kts | 229° |
| 2026-05-01 14:10 | 36.14926 | -77.41012 | 40076 ft | 427 kts | 228° |
| 2026-05-01 14:10 | 36.10247 | -77.45552 | 40071 ft | 427 kts | 229° |
| 2026-05-01 14:11 | 36.05595 | -77.50059 | 40074 ft | 427 kts | 229° |
| 2026-05-01 14:11 | 35.98562 | -77.56858 | 40082 ft | 427 kts | 229° |
| 2026-05-01 14:12 | 35.93905 | -77.61351 | 40076 ft | 427 kts | 229° |
| 2026-05-01 14:12 | 35.89213 | -77.65872 | 40076 ft | 427 kts | 229° |
| 2026-05-01 14:13 | 35.85311 | -77.69626 | 40071 ft | 428 kts | 229° |
| 2026-05-01 14:13 | 35.79842 | -77.74879 | 40081 ft | 428 kts | 229° |
| 2026-05-01 14:14 | 35.75145 | -77.79384 | 40082 ft | 427 kts | 229° |
| 2026-05-01 14:14 | 35.70434 | -77.83893 | 40080 ft | 427 kts | 229° |
| 2026-05-01 14:15 | 35.65758 | -77.88364 | 40079 ft | 427 kts | 229° |
| 2026-05-01 14:15 | 35.61054 | -77.92855 | 40077 ft | 427 kts | 229° |
| 2026-05-01 14:16 | 35.56375 | -77.97314 | 40081 ft | 427 kts | 229° |
| 2026-05-01 14:16 | 35.52468 | -78.01032 | 40078 ft | 426 kts | 229° |
| 2026-05-01 14:17 | 35.47004 | -78.06226 | 40078 ft | 427 kts | 229° |
| 2026-05-01 14:17 | 35.43085 | -78.09944 | 40075 ft | 427 kts | 229° |
| 2026-05-01 14:18 | 35.38367 | -78.14415 | 40069 ft | 427 kts | 229° |
| 2026-05-01 14:18 | 35.33678 | -78.18850 | 40061 ft | 427 kts | 229° |
| 2026-05-01 14:19 | 35.29001 | -78.23269 | 40056 ft | 427 kts | 229° |
| 2026-05-01 14:19 | 35.24289 | -78.27714 | 40054 ft | 427 kts | 229° |
| 2026-05-01 14:20 | 35.17223 | -78.34369 | 40078 ft | 426 kts | 229° |
| 2026-05-01 14:21 | 35.12543 | -78.38767 | 40085 ft | 426 kts | 229° |
| 2026-05-01 14:21 | 35.07852 | -78.43169 | 40096 ft | 426 kts | 228° |
| 2026-05-01 14:22 | 35.00774 | -78.49800 | 40097 ft | 426 kts | 228° |
| 2026-05-01 14:22 | 34.96099 | -78.54172 | 40079 ft | 426 kts | 228° |
| 2026-05-01 14:23 | 34.91388 | -78.58569 | 40071 ft | 426 kts | 228° |
| 2026-05-01 14:23 | 34.86672 | -78.62966 | 40045 ft | 425 kts | 228° |
| 2026-05-01 14:24 | 34.81991 | -78.67323 | 40052 ft | 425 kts | 228° |
| 2026-05-01 14:24 | 34.77274 | -78.71708 | 40053 ft | 426 kts | 228° |
| 2026-05-01 14:25 | 34.72584 | -78.76061 | 40058 ft | 426 kts | 228° |
| 2026-05-01 14:25 | 34.67863 | -78.80436 | 40055 ft | 426 kts | 228° |
| 2026-05-01 14:26 | 34.61041 | -78.86748 | 40040 ft | 426 kts | 228° |
| 2026-05-01 14:27 | 34.56339 | -78.91089 | 40042 ft | 425 kts | 228° |
| 2026-05-01 14:27 | 34.51605 | -78.95455 | 40041 ft | 426 kts | 228° |
| 2026-05-01 14:28 | 34.44516 | -79.01964 | 40055 ft | 427 kts | 228° |
| 2026-05-01 14:28 | 34.39692 | -79.06163 | 40042 ft | 430 kts | 226° |
| 2026-05-01 14:29 | 34.34802 | -79.10359 | 40034 ft | 431 kts | 227° |
| 2026-05-01 14:30 | 34.25085 | -79.18807 | 40056 ft | 425 kts | 231° |
| 2026-05-01 14:31 | 34.18168 | -79.25620 | 40045 ft | 428 kts | 230° |
| 2026-05-01 14:31 | 34.13578 | -79.30151 | 40047 ft | 428 kts | 230° |
| 2026-05-01 14:32 | 34.08929 | -79.34716 | 40046 ft | 429 kts | 230° |
| 2026-05-01 14:32 | 34.04330 | -79.39232 | 40045 ft | 429 kts | 230° |
| 2026-05-01 14:33 | 33.99672 | -79.43797 | 40034 ft | 429 kts | 230° |
| 2026-05-01 14:33 | 33.95056 | -79.48316 | 40025 ft | 430 kts | 230° |
| 2026-05-01 14:34 | 33.90404 | -79.52862 | 40027 ft | 430 kts | 230° |
| 2026-05-01 14:34 | 33.85727 | -79.57384 | 40028 ft | 432 kts | 229° |
| 2026-05-01 14:35 | 33.80996 | -79.61806 | 40024 ft | 432 kts | 229° |
| 2026-05-01 14:35 | 33.76235 | -79.66248 | 40028 ft | 433 kts | 229° |
| 2026-05-01 14:36 | 33.71495 | -79.70662 | 40031 ft | 434 kts | 229° |
| 2026-05-01 14:36 | 33.66699 | -79.75124 | 40032 ft | 434 kts | 229° |
| 2026-05-01 14:37 | 33.61943 | -79.79541 | 40037 ft | 435 kts | 229° |
| 2026-05-01 14:37 | 33.57141 | -79.83996 | 40028 ft | 435 kts | 229° |
| 2026-05-01 14:38 | 33.52358 | -79.88425 | 40017 ft | 436 kts | 229° |
| 2026-05-01 14:38 | 33.47572 | -79.92852 | 40017 ft | 436 kts | 229° |
| 2026-05-01 14:39 | 33.42757 | -79.97298 | 40004 ft | 436 kts | 229° |
| 2026-05-01 14:39 | 33.37929 | -80.01751 | 40001 ft | 437 kts | 229° |
| 2026-05-01 14:40 | 33.33121 | -80.06178 | 40007 ft | 437 kts | 229° |
| 2026-05-01 14:40 | 33.28300 | -80.10611 | 40006 ft | 438 kts | 229° |
| 2026-05-01 14:41 | 33.23462 | -80.15053 | 40005 ft | 438 kts | 229° |
| 2026-05-01 14:41 | 33.18651 | -80.19464 | 40002 ft | 438 kts | 229° |
| 2026-05-01 14:42 | 33.13816 | -80.23892 | 39982 ft | 438 kts | 229° |
| 2026-05-01 14:42 | 33.08969 | -80.28323 | 39977 ft | 439 kts | 229° |
| 2026-05-01 14:43 | 33.04112 | -80.32758 | 39993 ft | 438 kts | 229° |
| 2026-05-01 14:43 | 32.99291 | -80.37153 | 39988 ft | 439 kts | 228° |
| 2026-05-01 14:44 | 32.94432 | -80.41577 | 39985 ft | 439 kts | 228° |
| 2026-05-01 14:44 | 32.87155 | -80.48189 | 40000 ft | 440 kts | 228° |
| 2026-05-01 14:45 | 32.79840 | -80.54823 | 40001 ft | 441 kts | 228° |
| 2026-05-01 14:46 | 32.74986 | -80.59216 | 40002 ft | 440 kts | 228° |
| 2026-05-01 14:46 | 32.67709 | -80.65863 | 39970 ft | 438 kts | 229° |
| 2026-05-01 14:47 | 32.62960 | -80.70330 | 39981 ft | 438 kts | 229° |
| 2026-05-01 14:48 | 32.55715 | -80.77046 | 39979 ft | 438 kts | 229° |
| 2026-05-01 14:48 | 32.48527 | -80.83711 | 39979 ft | 438 kts | 229° |
| 2026-05-01 14:49 | 32.38919 | -80.92602 | 39967 ft | 439 kts | 228° |
| 2026-05-01 14:50 | 32.29274 | -81.01494 | 39953 ft | 441 kts | 226° |
| 2026-05-01 14:51 | 32.21203 | -81.07139 | 39969 ft | 451 kts | 220° |
| 2026-05-01 14:52 | 32.12974 | -81.12643 | 39974 ft | 452 kts | 220° |
| 2026-05-01 14:53 | 32.04785 | -81.18111 | 39935 ft | 452 kts | 220° |
| 2026-05-01 14:53 | 31.99306 | -81.21762 | 39932 ft | 453 kts | 220° |
| 2026-05-01 14:54 | 31.94273 | -81.25927 | 39954 ft | 436 kts | 232° |
| 2026-05-01 14:54 | 31.89757 | -81.30687 | 39949 ft | 438 kts | 231° |
| 2026-05-01 14:55 | 31.85223 | -81.35480 | 39966 ft | 437 kts | 231° |
| 2026-05-01 14:55 | 31.80677 | -81.40271 | 39967 ft | 437 kts | 231° |
| 2026-05-01 14:56 | 31.76159 | -81.45029 | 39967 ft | 438 kts | 231° |
| 2026-05-01 14:56 | 31.71612 | -81.49809 | 39959 ft | 438 kts | 231° |
| 2026-05-01 14:57 | 31.67082 | -81.54567 | 39956 ft | 438 kts | 231° |
| 2026-05-01 14:57 | 31.60267 | -81.61710 | 39978 ft | 439 kts | 231° |
| 2026-05-01 14:58 | 31.55703 | -81.66484 | 39988 ft | 438 kts | 231° |
| 2026-05-01 14:58 | 31.51154 | -81.71239 | 39997 ft | 438 kts | 230° |
| 2026-05-01 14:59 | 31.46614 | -81.75976 | 39998 ft | 438 kts | 230° |
| 2026-05-01 14:59 | 31.42058 | -81.80703 | 39997 ft | 441 kts | 227° |
| 2026-05-01 15:00 | 31.36806 | -81.84677 | 39998 ft | 453 kts | 220° |
| 2026-05-01 15:00 | 31.34076 | -81.86543 | 39992 ft | 453 kts | 220° |
| 2026-05-01 15:01 | 31.28651 | -81.90227 | 39973 ft | 453 kts | 219° |
| 2026-05-01 15:01 | 31.23185 | -81.93933 | 39953 ft | 453 kts | 219° |
| 2026-05-01 15:02 | 31.17740 | -81.97623 | 39943 ft | 454 kts | 219° |
| 2026-05-01 15:02 | 31.12273 | -82.01320 | 39952 ft | 454 kts | 219° |
| 2026-05-01 15:03 | 31.06817 | -82.05006 | 39955 ft | 454 kts | 219° |
| 2026-05-01 15:03 | 31.01332 | -82.08707 | 39969 ft | 454 kts | 219° |
| 2026-05-01 15:04 | 30.95885 | -82.12377 | 39986 ft | 454 kts | 219° |
| 2026-05-01 15:04 | 30.90381 | -82.16080 | 40016 ft | 454 kts | 219° |
| 2026-05-01 15:05 | 30.84931 | -82.19742 | 40035 ft | 455 kts | 218° |
| 2026-05-01 15:05 | 30.79439 | -82.23427 | 40055 ft | 455 kts | 218° |
| 2026-05-01 15:06 | 30.73978 | -82.27088 | 40061 ft | 455 kts | 218° |
| 2026-05-01 15:06 | 30.68366 | -82.30560 | 40083 ft | 463 kts | 210° |
| 2026-05-01 15:06 | 30.65259 | -82.31724 | 40081 ft | 475 kts | 201° |
| 2026-05-01 15:07 | 30.61975 | -82.32361 | 40085 ft | 483 kts | 194° |
| 2026-05-01 15:07 | 30.55321 | -82.33210 | 40084 ft | 482 kts | 195° |
| 2026-05-01 15:08 | 30.48633 | -82.34034 | 40088 ft | 483 kts | 195° |
| 2026-05-01 15:08 | 30.41968 | -82.34869 | 40061 ft | 483 kts | 195° |
| 2026-05-01 15:09 | 30.35289 | -82.35698 | 40036 ft | 483 kts | 194° |
| 2026-05-01 15:09 | 30.29711 | -82.36392 | 40020 ft | 484 kts | 194° |
| 2026-05-01 15:10 | 30.22996 | -82.37225 | 40016 ft | 484 kts | 194° |
| 2026-05-01 15:10 | 30.12844 | -82.37728 | 40023 ft | 495 kts | 185° |
| 2026-05-01 15:11 | 30.09444 | -82.37537 | 39865 ft | 492 kts | 185° |
| 2026-05-01 15:11 | 30.02605 | -82.37140 | 38698 ft | 493 kts | 186° |
| 2026-05-01 15:11 | 29.99161 | -82.36958 | 37927 ft | 494 kts | 185° |
| 2026-05-01 15:12 | 29.95725 | -82.36769 | 37174 ft | 495 kts | 185° |
| 2026-05-01 15:12 | 29.88881 | -82.36380 | 35682 ft | 495 kts | 184° |
| 2026-05-01 15:12 | 29.85423 | -82.36189 | 34910 ft | 496 kts | 184° |
| 2026-05-01 15:13 | 29.75136 | -82.35612 | 32918 ft | 486 kts | 184° |
| 2026-05-01 15:14 | 29.68449 | -82.35246 | 31809 ft | 475 kts | 184° |
| 2026-05-01 15:14 | 29.65155 | -82.35064 | 31169 ft | 472 kts | 183° |
| 2026-05-01 15:14 | 29.58707 | -82.34704 | 29710 ft | 460 kts | 183° |
| 2026-05-01 15:15 | 29.52360 | -82.34354 | 27620 ft | 450 kts | 184° |
| 2026-05-01 15:15 | 29.46263 | -82.34014 | 26155 ft | 431 kts | 184° |
| 2026-05-01 15:16 | 29.40209 | -82.33677 | 24772 ft | 436 kts | 182° |
| 2026-05-01 15:16 | 29.34218 | -82.32952 | 23423 ft | 434 kts | 181° |
| 2026-05-01 15:17 | 29.28312 | -82.32248 | 21984 ft | 412 kts | 181° |
| 2026-05-01 15:18 | 29.19798 | -82.31242 | 20214 ft | 410 kts | 181° |
| 2026-05-01 15:18 | 29.16955 | -82.30896 | 19633 ft | 407 kts | 181° |
| 2026-05-01 15:19 | 29.08626 | -82.29908 | 17861 ft | 397 kts | 180° |
| 2026-05-01 15:19 | 29.03186 | -82.29259 | 16745 ft | 388 kts | 180° |
| 2026-05-01 15:19 | 29.00520 | -82.28945 | 16197 ft | 388 kts | 180° |
| 2026-05-01 15:20 | 28.95195 | -82.28311 | 15099 ft | 378 kts | 179° |
| 2026-05-01 15:20 | 28.92597 | -82.28002 | 14569 ft | 373 kts | 179° |
| 2026-05-01 15:20 | 28.90009 | -82.27697 | 14034 ft | 373 kts | 179° |
| 2026-05-01 15:21 | 28.87463 | -82.27396 | 13448 ft | 369 kts | 179° |
| 2026-05-01 15:21 | 28.84893 | -82.27092 | 12670 ft | 371 kts | 179° |
| 2026-05-01 15:21 | 28.82346 | -82.26788 | 12139 ft | 363 kts | 179° |
| 2026-05-01 15:21 | 28.79852 | -82.26492 | 11629 ft | 356 kts | 179° |
| 2026-05-01 15:22 | 28.75057 | -82.25925 | 10879 ft | 335 kts | 179° |
| 2026-05-01 15:22 | 28.72799 | -82.25794 | 10753 ft | 313 kts | 186° |
| 2026-05-01 15:22 | 28.70683 | -82.25772 | 10621 ft | 299 kts | 184° |
| 2026-05-01 15:23 | 28.68650 | -82.25712 | 10479 ft | 285 kts | 184° |
| 2026-05-01 15:23 | 28.66682 | -82.25677 | 10212 ft | 278 kts | 185° |
| 2026-05-01 15:23 | 28.64761 | -82.25658 | 9933 ft | 276 kts | 185° |
| 2026-05-01 15:23 | 28.62840 | -82.25635 | 9645 ft | 277 kts | 184° |
| 2026-05-01 15:24 | 28.60929 | -82.25592 | 9362 ft | 272 kts | 184° |
| 2026-05-01 15:24 | 28.59008 | -82.25553 | 9097 ft | 276 kts | 184° |
| 2026-05-01 15:24 | 28.57112 | -82.25516 | 8827 ft | 268 kts | 184° |
| 2026-05-01 15:24 | 28.55252 | -82.25482 | 8567 ft | 274 kts | 184° |
| 2026-05-01 15:25 | 28.53337 | -82.25447 | 8290 ft | 270 kts | 183° |
| 2026-05-01 15:25 | 28.51483 | -82.25410 | 8004 ft | 264 kts | 183° |
| 2026-05-01 15:25 | 28.49627 | -82.25390 | 7757 ft | 269 kts | 183° |
| 2026-05-01 15:25 | 28.47796 | -82.25369 | 7489 ft | 262 kts | 183° |
| 2026-05-01 15:26 | 28.45981 | -82.25344 | 7225 ft | 263 kts | 182° |
| 2026-05-01 15:26 | 28.44133 | -82.25320 | 6958 ft | 265 kts | 182° |
| 2026-05-01 15:26 | 28.42305 | -82.25294 | 6688 ft | 258 kts | 182° |
| 2026-05-01 15:26 | 28.40493 | -82.25271 | 6419 ft | 260 kts | 182° |
| 2026-05-01 15:27 | 28.38702 | -82.25250 | 6163 ft | 254 kts | 181° |
| 2026-05-01 15:27 | 28.36970 | -82.25296 | 5987 ft | 247 kts | 191° |
| 2026-05-01 15:27 | 28.35406 | -82.26057 | 5983 ft | 244 kts | 216° |
| 2026-05-01 15:28 | 28.32795 | -82.28521 | 5997 ft | 245 kts | 221° |
| 2026-05-01 15:28 | 28.31493 | -82.29774 | 5993 ft | 243 kts | 221° |
| 2026-05-01 15:28 | 28.30326 | -82.31160 | 5982 ft | 245 kts | 240° |
| 2026-05-01 15:29 | 28.29580 | -82.34807 | 5674 ft | 230 kts | 262° |
| 2026-05-01 15:29 | 28.29391 | -82.36579 | 5316 ft | 221 kts | 262° |
| 2026-05-01 15:29 | 28.28997 | -82.40016 | 4159 ft | 217 kts | 263° |
| 2026-05-01 15:30 | 28.29051 | -82.43427 | 3109 ft | 218 kts | 268° |
| 2026-05-01 15:31 | 28.24848 | -82.47017 | 2950 ft | 174 kts | 202° |
| 2026-05-01 15:31 | 28.22624 | -82.48102 | 2995 ft | 180 kts | 204° |
| 2026-05-01 15:32 | 28.20378 | -82.49202 | 2987 ft | 172 kts | 204° |
| 2026-05-01 15:32 | 28.18045 | -82.50338 | 3008 ft | 184 kts | 202° |
| 2026-05-01 15:33 | 28.14484 | -82.52027 | 2985 ft | 187 kts | 199° |
| 2026-05-01 15:34 | 28.10668 | -82.52424 | 2345 ft | 179 kts | 183° |